Time;durP1;ratioP1;P1;durP2;ratioP2;P2;SDS_P1;SDS_P2;PMS_P1;PMS_P2;Temp;Humidity;BMP_temperature;BMP_pressure;BME280_temperature;BME280_humidity;BME280_pressure;Samples;Min_cycle;Max_cycle;Signal;HPM_P1;HPM_P2
2022/10/15 00:01:08;;;;;;;3.17;2.97;;;14.50;95.80;;;;;;5068110;28;20416;-64
2022/10/15 00:03:36;;;;;;;3.10;2.80;;;14.50;95.70;;;;;;5068687;28;20411;-67
2022/10/15 00:06:08;;;;;;;3.00;2.80;;;14.50;95.80;;;;;;5069908;28;20420;-67
2022/10/15 00:08:35;;;;;;;3.38;3.08;;;14.50;95.90;;;;;;5069323;28;20415;-66
2022/10/15 00:11:04;;;;;;;3.13;2.83;;;14.50;95.90;;;;;;5068622;28;20936;-67
2022/10/15 00:13:32;;;;;;;3.50;3.20;;;14.40;96.20;;;;;;5067752;28;20427;-68
2022/10/15 00:15:59;;;;;;;3.00;2.80;;;14.50;96.20;;;;;;5065831;28;20434;-67
2022/10/15 00:18:26;;;;;;;3.30;3.10;;;14.40;96.30;;;;;;5062462;28;20772;-67
2022/10/15 00:20:53;;;;;;;3.10;2.90;;;14.40;96.50;;;;;;5063280;28;20431;-67
2022/10/15 00:23:20;;;;;;;3.28;3.08;;;14.50;96.40;;;;;;5061704;28;20917;-67
2022/10/15 00:25:47;;;;;;;3.50;3.20;;;14.40;96.40;;;;;;5065465;28;20438;-67
2022/10/15 00:28:13;;;;;;;3.05;2.83;;;14.40;96.50;;;;;;5067616;28;20982;-67
2022/10/15 00:30:41;;;;;;;3.30;3.00;;;14.40;96.80;;;;;;5067195;28;20427;-67
2022/10/15 00:33:08;;;;;;;3.40;3.10;;;14.40;96.80;;;;;;5066843;28;20431;-67
2022/10/15 00:35:35;;;;;;;3.30;3.00;;;14.40;96.70;;;;;;5062996;28;20435;-67
2022/10/15 00:38:01;;;;;;;3.15;2.95;;;14.40;96.80;;;;;;5064474;28;20438;-66
2022/10/15 00:40:28;;;;;;;3.83;3.53;;;14.40;97.00;;;;;;5066362;28;20836;-67
2022/10/15 00:42:55;;;;;;;4.30;3.90;;;14.40;97.00;;;;;;5065919;28;20428;-68
2022/10/15 00:45:22;;;;;;;4.30;4.00;;;14.40;97.00;;;;;;5059438;28;20450;-67
2022/10/15 00:47:51;;;;;;;4.43;4.13;;;14.40;97.30;;;;;;5065484;28;20435;-66
2022/10/15 00:50:20;;;;;;;3.80;3.60;;;14.40;97.40;;;;;;5065795;28;20438;-67
2022/10/15 00:52:58;;;;;;;3.70;3.40;;;14.30;97.40;;;;;;5057909;28;20429;-67
2022/10/15 00:55:28;;;;;;;3.97;3.67;;;14.30;97.40;;;;;;5065877;28;21131;-66
2022/10/15 00:57:56;;;;;;;3.63;3.33;;;14.20;97.60;;;;;;5060704;28;20816;-68
2022/10/15 01:00:23;;;;;;;3.80;3.50;;;14.20;97.50;;;;;;5057994;28;20426;-67
2022/10/15 01:02:51;;;;;;;3.58;3.28;;;14.20;97.70;;;;;;5065317;28;20423;-67
2022/10/15 01:05:18;;;;;;;3.80;3.50;;;14.20;97.70;;;;;;5066377;28;20956;-67
2022/10/15 01:07:45;;;;;;;4.63;3.80;;;14.20;97.90;;;;;;5066612;28;20423;-67
2022/10/15 01:10:13;;;;;;;4.30;4.00;;;14.10;98.00;;;;;;5068065;28;20913;-66
2022/10/15 01:12:58;;;;;;;4.53;4.22;;;14.10;98.00;;;;;;5066066;28;20436;-66
2022/10/15 01:15:29;;;;;;;4.70;4.20;;;14.10;98.10;;;;;;5054792;28;20431;-67
2022/10/15 01:18:03;;;;;;;4.70;4.30;;;14.00;98.30;;;;;;5065947;28;20442;-67
2022/10/15 01:20:55;;;;;;;5.07;4.68;;;14.00;98.50;;;;;;5065971;28;20428;-67
2022/10/15 01:24:00;;;;;;;4.90;4.50;;;14.00;98.60;;;;;;5064328;28;20507;-68
2022/10/15 01:27:00;;;;;;;5.30;4.80;;;14.00;98.80;;;;;;5062740;28;20434;-66
2022/10/15 01:29:48;;;;;;;5.23;4.77;;;14.00;98.80;;;;;;5063469;28;20430;-67
2022/10/15 01:32:22;;;;;;;5.90;4.75;;;14.00;98.90;;;;;;5058855;28;20427;-66
2022/10/15 01:34:56;;;;;;;4.97;4.57;;;14.00;99.00;;;;;;5067686;28;20412;-65
2022/10/15 01:37:32;;;;;;;4.57;4.28;;;14.00;99.10;;;;;;5065012;28;20917;-66
2022/10/15 01:40:05;;;;;;;4.70;4.40;;;13.90;99.00;;;;;;5057643;28;20427;-66
2022/10/15 01:42:38;;;;;;;4.20;3.90;;;13.90;99.00;;;;;;5066730;28;20928;-68
2022/10/15 01:45:09;;;;;;;4.90;4.50;;;13.90;98.90;;;;;;5068176;28;20431;-64
2022/10/15 01:47:43;;;;;;;4.87;4.57;;;14.00;98.70;;;;;;5059435;28;20434;-67
2022/10/15 01:50:12;;;;;;;5.10;4.70;;;14.00;98.70;;;;;;5066549;28;20450;-67
2022/10/15 01:52:41;;;;;;;4.80;4.40;;;13.90;98.60;;;;;;5066384;28;20427;-65
2022/10/15 01:55:11;;;;;;;5.25;4.95;;;13.90;98.60;;;;;;5066744;28;20435;-67
2022/10/15 01:57:41;;;;;;;5.20;4.80;;;13.90;98.60;;;;;;5066191;28;20431;-67
2022/10/15 02:00:08;;;;;;;5.50;5.00;;;13.90;98.70;;;;;;5061957;28;20538;-66
2022/10/15 02:02:36;;;;;;;6.20;5.70;;;13.90;98.70;;;;;;5067041;28;20892;-67
2022/10/15 02:05:06;;;;;;;5.80;5.40;;;13.80;98.70;;;;;;5070234;28;20418;-67
2022/10/15 02:07:45;;;;;;;5.90;5.40;;;13.80;98.70;;;;;;5068359;28;20438;-67
2022/10/15 02:10:19;;;;;;;6.10;5.60;;;13.80;98.80;;;;;;5069974;28;20913;-67
2022/10/15 02:12:56;;;;;;;6.77;6.17;;;13.80;99.00;;;;;;5070366;28;20431;-66
2022/10/15 02:15:34;;;;;;;6.65;6.05;;;13.80;99.10;;;;;;5065036;28;20423;-66
2022/10/15 02:18:05;;;;;;;6.95;6.35;;;13.80;99.20;;;;;;5070089;28;20436;-67
2022/10/15 02:20:40;;;;;;;6.40;5.80;;;13.80;99.20;;;;;;5064727;28;20501;-70
2022/10/15 02:23:13;;;;;;;6.30;5.90;;;13.70;99.20;;;;;;5067281;28;20437;-70
2022/10/15 02:25:42;;;;;;;7.20;6.50;;;13.70;99.30;;;;;;5065137;28;20513;-70
2022/10/15 02:28:11;;;;;;;7.40;6.90;;;13.70;99.40;;;;;;5070997;28;20813;-70
2022/10/15 02:30:40;;;;;;;7.80;7.20;;;13.70;99.50;;;;;;5067889;28;20431;-69
2022/10/15 02:33:09;;;;;;;6.90;6.40;;;13.70;99.60;;;;;;5066600;28;20484;-69
2022/10/15 02:35:37;;;;;;;6.50;6.00;;;13.80;99.60;;;;;;5065647;28;20431;-70
2022/10/15 02:38:08;;;;;;;6.63;6.13;;;13.80;99.60;;;;;;5068323;28;20427;-70
2022/10/15 02:40:37;;;;;;;7.17;6.67;;;13.80;99.60;;;;;;5068278;28;20427;-70
2022/10/15 02:43:06;;;;;;;7.22;6.63;;;13.80;99.70;;;;;;5068534;28;20431;-69
2022/10/15 02:45:33;;;;;;;6.93;6.33;;;13.80;99.70;;;;;;5070158;28;20556;-69
2022/10/15 02:48:00;;;;;;;7.23;6.63;;;13.80;99.60;;;;;;5068809;28;20434;-69
2022/10/15 02:50:28;;;;;;;7.37;6.77;;;13.80;99.60;;;;;;5070523;28;20946;-70
2022/10/15 02:52:55;;;;;;;6.75;6.20;;;13.80;99.60;;;;;;5070023;28;20428;-70
2022/10/15 02:55:21;;;;;;;6.70;6.10;;;13.80;99.50;;;;;;5069896;28;20547;-70
2022/10/15 02:57:48;;;;;;;7.20;6.50;;;13.80;99.40;;;;;;5070535;28;20423;-70
2022/10/15 03:00:17;;;;;;;6.63;6.03;;;13.80;99.50;;;;;;5068944;28;20438;-70
2022/10/15 03:02:44;;;;;;;6.10;5.60;;;13.80;99.30;;;;;;5069436;28;20446;-70
2022/10/15 03:05:11;;;;;;;6.40;5.90;;;13.80;99.10;;;;;;5068179;28;20946;-70
2022/10/15 03:07:39;;;;;;;6.00;5.60;;;13.80;98.90;;;;;;5070688;28;20518;-71
2022/10/15 03:10:07;;;;;;;6.07;5.60;;;13.80;98.80;;;;;;5069725;28;20530;-69
2022/10/15 03:12:33;;;;;;;5.90;5.50;;;13.80;98.70;;;;;;5064312;28;20909;-70
2022/10/15 03:15:00;;;;;;;5.60;5.20;;;13.80;98.60;;;;;;5059764;28;20425;-70
2022/10/15 03:17:27;;;;;;;5.65;5.25;;;13.80;98.50;;;;;;5064945;28;20431;-71
2022/10/15 03:19:53;;;;;;;5.70;5.20;;;13.80;98.30;;;;;;5068241;28;20426;-70
2022/10/15 03:22:20;;;;;;;5.30;4.90;;;13.90;98.00;;;;;;5066139;28;20438;-69
2022/10/15 03:24:48;;;;;;;5.80;5.30;;;13.90;97.80;;;;;;5066212;28;20810;-71
2022/10/15 03:27:15;;;;;;;6.10;5.60;;;13.90;98.00;;;;;;5068504;28;20428;-70
2022/10/15 03:29:42;;;;;;;5.45;5.00;;;13.90;98.00;;;;;;5068145;28;20424;-69
2022/10/15 03:32:08;;;;;;;5.78;5.38;;;13.90;98.00;;;;;;5066281;28;20952;-70
2022/10/15 03:34:35;;;;;;;5.80;5.40;;;13.90;98.10;;;;;;5069449;28;20502;-70
2022/10/15 03:37:02;;;;;;;6.50;6.00;;;13.90;98.20;;;;;;5066278;28;20439;-70
2022/10/15 03:39:28;;;;;;;6.10;5.70;;;13.90;98.30;;;;;;5066655;28;21073;-70
2022/10/15 03:41:57;;;;;;;5.72;5.32;;;13.90;98.30;;;;;;5060245;28;20424;-70
2022/10/15 03:44:23;;;;;;;5.80;5.40;;;13.90;98.30;;;;;;5068753;28;20431;-71
2022/10/15 03:46:50;;;;;;;5.88;5.40;;;13.90;98.40;;;;;;5068099;28;20433;-69
2022/10/15 03:49:17;;;;;;;5.72;5.22;;;13.90;98.40;;;;;;5068520;28;20427;-70
2022/10/15 03:51:44;;;;;;;6.47;5.97;;;13.90;98.40;;;;;;5067214;28;20435;-70
2022/10/15 03:54:10;;;;;;;6.30;5.80;;;13.90;98.40;;;;;;5067241;28;20432;-70
2022/10/15 03:56:37;;;;;;;5.50;5.10;;;13.90;98.50;;;;;;5064007;28;20510;-70
2022/10/15 03:59:05;;;;;;;6.05;5.55;;;13.90;98.30;;;;;;5058522;28;20433;-70
2022/10/15 04:01:32;;;;;;;6.55;5.95;;;13.90;98.20;;;;;;5066515;28;20427;-70
2022/10/15 04:03:59;;;;;;;6.20;5.70;;;13.90;98.20;;;;;;5065486;28;20435;-70
2022/10/15 04:06:26;;;;;;;6.10;5.60;;;13.90;98.10;;;;;;5046697;28;20807;-69
2022/10/15 04:08:53;;;;;;;6.22;5.68;;;13.90;97.90;;;;;;5064906;28;20482;-70
2022/10/15 04:11:20;;;;;;;6.03;5.43;;;13.90;97.90;;;;;;5069924;28;20438;-69
2022/10/15 04:13:49;;;;;;;6.43;5.75;;;13.90;97.80;;;;;;5068792;28;20434;-70
2022/10/15 04:16:17;;;;;;;6.00;5.60;;;13.90;97.70;;;;;;5062474;28;20440;-69
2022/10/15 04:18:44;;;;;;;6.35;5.85;;;13.90;97.70;;;;;;5059590;28;20443;-70
2022/10/15 04:21:11;;;;;;;5.88;5.47;;;13.90;97.70;;;;;;5067399;28;20457;-70
2022/10/15 04:23:38;;;;;;;6.20;5.60;;;13.90;97.60;;;;;;5068777;28;20948;-70
2022/10/15 04:26:05;;;;;;;6.00;5.50;;;13.90;97.60;;;;;;5062326;28;20443;-69
2022/10/15 04:28:32;;;;;;;6.43;5.93;;;13.90;97.30;;;;;;5070061;28;20419;-70
2022/10/15 04:30:59;;;;;;;5.93;5.43;;;14.00;97.00;;;;;;5068295;28;20435;-71
2022/10/15 04:33:28;;;;;;;6.13;5.63;;;14.00;96.70;;;;;;5062731;28;20429;-69
2022/10/15 04:35:59;;;;;;;6.53;6.10;;;14.00;96.50;;;;;;5067378;28;20431;-69
2022/10/15 04:38:26;;;;;;;6.25;5.75;;;14.00;96.50;;;;;;5068605;28;20427;-69
2022/10/15 04:40:59;;;;;;;6.43;5.90;;;13.90;96.60;;;;;;5069223;28;20515;-69
2022/10/15 04:43:26;;;;;;;6.60;6.00;;;13.90;96.90;;;;;;5066820;28;20469;-69
2022/10/15 04:45:57;;;;;;;6.90;6.40;;;13.80;96.90;;;;;;5066758;28;20435;-70
2022/10/15 04:48:24;;;;;;;6.87;6.27;;;13.80;97.00;;;;;;5068951;28;20517;-70
2022/10/15 04:50:52;;;;;;;6.63;6.13;;;13.80;97.40;;;;;;5065213;28;20470;-69
2022/10/15 04:53:19;;;;;;;7.20;6.70;;;13.70;97.20;;;;;;5071294;28;20484;-69
2022/10/15 04:55:46;;;;;;;6.87;6.37;;;13.70;97.20;;;;;;5068129;28;20428;-70
2022/10/15 04:58:13;;;;;;;7.20;6.60;;;13.70;97.20;;;;;;5061288;28;20435;-69
2022/10/15 05:00:40;;;;;;;6.80;6.30;;;13.70;97.30;;;;;;5064694;28;20465;-69
2022/10/15 05:03:07;;;;;;;7.45;6.85;;;13.70;97.50;;;;;;5066002;28;20435;-69
2022/10/15 05:05:33;;;;;;;6.97;6.43;;;13.80;97.70;;;;;;5063050;28;20427;-71
2022/10/15 05:08:02;;;;;;;8.02;7.43;;;13.70;97.80;;;;;;5093910;22;20492;-73
2022/10/15 05:10:29;;;;;;;7.45;6.95;;;13.80;97.90;;;;;;5086432;28;20452;-74
2022/10/15 05:12:55;;;;;;;7.30;6.80;;;13.80;97.80;;;;;;5082291;28;20425;-73
2022/10/15 05:15:22;;;;;;;7.78;7.07;;;13.80;97.70;;;;;;5081699;28;20559;-73
2022/10/15 05:17:49;;;;;;;7.35;6.75;;;13.80;97.70;;;;;;5082057;28;20792;-73
2022/10/15 05:20:16;;;;;;;7.07;6.57;;;13.80;97.60;;;;;;5079725;28;20430;-74
2022/10/15 05:22:43;;;;;;;7.70;7.10;;;13.80;97.40;;;;;;5079575;28;20425;-73
2022/10/15 05:25:11;;;;;;;7.40;6.80;;;13.80;97.40;;;;;;5094690;28;20484;-73
2022/10/15 05:27:38;;;;;;;7.50;6.90;;;13.90;97.30;;;;;;5088047;28;20441;-73
2022/10/15 05:30:05;;;;;;;7.38;6.78;;;13.80;97.20;;;;;;5082586;28;20440;-74
2022/10/15 05:32:32;;;;;;;7.10;6.50;;;13.80;97.10;;;;;;5084902;28;20896;-73
2022/10/15 05:34:59;;;;;;;7.70;7.10;;;13.80;97.20;;;;;;5086738;28;20430;-74
2022/10/15 05:37:26;;;;;;;8.35;7.65;;;13.80;97.30;;;;;;5084527;28;21103;-73
2022/10/15 05:39:52;;;;;;;7.65;7.10;;;13.80;97.40;;;;;;5087388;28;20424;-73
2022/10/15 05:42:20;;;;;;;8.20;7.50;;;13.80;97.40;;;;;;5083170;28;20478;-73
2022/10/15 05:44:47;;;;;;;8.30;7.70;;;13.80;97.50;;;;;;5081045;28;20918;-73
2022/10/15 05:47:14;;;;;;;8.27;7.57;;;13.80;97.60;;;;;;5083038;28;20433;-73
2022/10/15 05:49:41;;;;;;;8.30;7.60;;;13.80;97.90;;;;;;5083613;28;20486;-74
2022/10/15 05:52:08;;;;;;;7.80;7.20;;;13.80;97.50;;;;;;5082943;28;20469;-73
2022/10/15 05:54:34;;;;;;;7.70;7.00;;;13.80;97.60;;;;;;5086762;28;20624;-73
2022/10/15 05:57:01;;;;;;;7.00;6.40;;;13.80;97.50;;;;;;5083905;28;20430;-74
2022/10/15 05:59:29;;;;;;;6.65;6.20;;;13.80;97.50;;;;;;5084331;28;20958;-73
2022/10/15 06:01:56;;;;;;;6.00;5.50;;;13.80;97.50;;;;;;5083810;28;20433;-73
2022/10/15 06:04:23;;;;;;;6.30;5.80;;;13.80;97.50;;;;;;5085313;28;20414;-73
2022/10/15 06:06:49;;;;;;;6.10;5.70;;;13.70;97.50;;;;;;5082627;28;20614;-73
2022/10/15 06:09:16;;;;;;;6.60;6.10;;;13.70;97.60;;;;;;5084718;28;20426;-74
2022/10/15 06:11:43;;;;;;;6.77;6.17;;;13.70;97.60;;;;;;5084387;28;20441;-74
2022/10/15 06:14:10;;;;;;;7.10;6.50;;;13.70;97.70;;;;;;5084571;28;20434;-73
2022/10/15 06:16:38;;;;;;;7.30;6.60;;;13.70;97.70;;;;;;5082608;28;20856;-74
2022/10/15 06:19:05;;;;;;;7.32;6.72;;;13.60;97.80;;;;;;5079931;28;20512;-73
2022/10/15 06:21:32;;;;;;;6.95;6.25;;;13.60;97.90;;;;;;5081291;28;20438;-73
2022/10/15 06:23:59;;;;;;;6.03;5.63;;;13.50;98.10;;;;;;5081364;28;20428;-72
2022/10/15 06:26:25;;;;;;;6.15;5.65;;;13.50;98.10;;;;;;5086493;28;20438;-73
2022/10/15 06:28:52;;;;;;;5.57;5.07;;;13.50;98.10;;;;;;5080546;28;20437;-73
2022/10/15 06:31:19;;;;;;;5.60;5.20;;;13.50;98.20;;;;;;5085756;28;20453;-73
2022/10/15 06:33:47;;;;;;;5.80;5.40;;;13.50;98.40;;;;;;5080825;28;20438;-74
2022/10/15 06:36:14;;;;;;;5.88;5.40;;;13.50;98.40;;;;;;5079661;28;20807;-74
2022/10/15 06:38:42;;;;;;;5.80;5.40;;;13.50;98.60;;;;;;5081010;28;20444;-74
2022/10/15 06:41:09;;;;;;;5.85;5.35;;;13.50;98.60;;;;;;5080224;28;20458;-72
2022/10/15 06:43:36;;;;;;;6.15;5.70;;;13.50;98.70;;;;;;5088960;28;20420;-73
2022/10/15 06:46:04;;;;;;;5.70;5.20;;;13.50;98.80;;;;;;5083902;28;21114;-71
2022/10/15 06:48:31;;;;;;;5.90;5.40;;;13.60;98.90;;;;;;5077731;28;20537;-72
2022/10/15 06:51:00;;;;;;;5.47;5.07;;;13.60;98.90;;;;;;5070173;28;20431;-70
2022/10/15 06:53:27;;;;;;;5.20;4.80;;;13.70;98.80;;;;;;5078466;28;20426;-73
2022/10/15 06:55:56;;;;;;;5.32;4.82;;;13.70;98.60;;;;;;5077495;28;20727;-71
2022/10/15 06:58:23;;;;;;;4.93;4.63;;;13.70;98.40;;;;;;5102454;28;20465;-73
2022/10/15 07:00:50;;;;;;;4.50;4.20;;;13.80;98.30;;;;;;5093472;28;20783;-71
2022/10/15 07:03:17;;;;;;;4.32;4.00;;;13.80;98.10;;;;;;5088640;28;20413;-71
2022/10/15 07:05:43;;;;;;;4.45;4.05;;;13.80;97.90;;;;;;5090823;28;20414;-73
2022/10/15 07:08:12;;;;;;;4.80;3.90;;;13.90;97.60;;;;;;5087281;28;20425;-73
2022/10/15 07:10:38;;;;;;;3.60;3.30;;;13.90;97.30;;;;;;5101365;28;20426;-71
2022/10/15 07:13:05;;;;;;;3.50;3.20;;;14.00;97.00;;;;;;5101255;28;20425;-71
2022/10/15 07:15:32;;;;;;;3.40;3.10;;;14.10;96.70;;;;;;5095513;28;21077;-72
2022/10/15 07:18:01;;;;;;;3.20;2.90;;;14.10;96.40;;;;;;5091153;28;20468;-73
2022/10/15 07:20:29;;;;;;;3.60;3.30;;;14.20;96.10;;;;;;5107391;28;20420;-72
2022/10/15 07:22:59;;;;;;;2.70;2.50;;;14.20;96.10;;;;;;5090894;28;20920;-72
2022/10/15 07:25:28;;;;;;;3.80;3.50;;;14.20;96.00;;;;;;5087327;28;20508;-72
2022/10/15 07:27:55;;;;;;;2.80;2.60;;;14.20;95.90;;;;;;5086892;28;20410;-70
2022/10/15 07:30:26;;;;;;;4.30;3.10;;;14.30;95.70;;;;;;5086287;28;20752;-70
2022/10/15 07:32:52;;;;;;;3.33;3.03;;;14.30;95.60;;;;;;5086158;28;20433;-70
2022/10/15 07:35:19;;;;;;;3.25;3.05;;;14.30;95.60;;;;;;5080733;28;20415;-71
2022/10/15 07:37:47;;;;;;;3.70;3.10;;;14.30;95.80;;;;;;5087442;28;20440;-71
2022/10/15 07:40:14;;;;;;;2.95;2.75;;;14.30;95.80;;;;;;5076895;28;20426;-70
2022/10/15 07:42:43;;;;;;;3.45;3.00;;;14.30;95.70;;;;;;5089697;28;20427;-70
2022/10/15 07:45:11;;;;;;;3.20;2.90;;;14.40;95.60;;;;;;5084736;28;20953;-70
2022/10/15 07:47:41;;;;;;;3.35;3.15;;;14.50;95.50;;;;;;5086467;28;20418;-70
2022/10/15 07:50:08;;;;;;;3.27;2.97;;;14.60;95.50;;;;;;5086213;28;20943;-72
2022/10/15 07:52:35;;;;;;;4.78;3.10;;;14.80;95.40;;;;;;5072662;28;20860;-70
2022/10/15 07:55:02;;;;;;;3.45;3.15;;;14.90;94.50;;;;;;5085354;28;20413;-71
2022/10/15 07:57:28;;;;;;;4.20;3.25;;;15.00;94.20;;;;;;5085610;28;20530;-71
2022/10/15 07:59:57;;;;;;;2.95;2.75;;;15.00;94.20;;;;;;5085903;28;20418;-71
2022/10/15 08:02:23;;;;;;;2.95;2.75;;;15.00;93.90;;;;;;5084291;28;20417;-71
2022/10/15 08:04:50;;;;;;;2.88;2.67;;;15.00;94.30;;;;;;5100645;28;20496;-72
2022/10/15 08:07:17;;;;;;;3.15;2.80;;;15.00;94.00;;;;;;5105996;28;20862;-72
2022/10/15 08:09:44;;;;;;;2.92;2.60;;;14.90;94.00;;;;;;5090743;28;20548;-71
2022/10/15 08:12:11;;;;;;;3.20;2.40;;;14.90;94.10;;;;;;5084376;28;20428;-71
2022/10/15 08:14:38;;;;;;;2.65;2.40;;;14.90;94.20;;;;;;5085100;28;20433;-72
2022/10/15 08:17:08;;;;;;;2.15;1.95;;;14.90;94.20;;;;;;5085241;28;20475;-71
2022/10/15 08:19:34;;;;;;;1.90;1.80;;;15.00;94.30;;;;;;5085302;28;20437;-71
2022/10/15 08:22:01;;;;;;;3.30;2.00;;;15.00;94.20;;;;;;5084016;28;20430;-71
2022/10/15 08:24:29;;;;;;;2.15;2.00;;;15.00;93.90;;;;;;5079849;28;20565;-70
2022/10/15 08:26:58;;;;;;;2.05;1.90;;;15.10;93.90;;;;;;5085644;28;20490;-71
2022/10/15 08:29:24;;;;;;;2.50;2.20;;;15.20;93.80;;;;;;5084349;28;20583;-73
2022/10/15 08:31:51;;;;;;;2.35;2.15;;;15.30;93.50;;;;;;5085438;28;20410;-72
2022/10/15 08:34:19;;;;;;;2.55;2.35;;;15.40;93.50;;;;;;5084550;28;20429;-71
2022/10/15 08:36:46;;;;;;;2.30;2.10;;;15.40;93.20;;;;;;5085250;28;20863;-72
2022/10/15 08:39:13;;;;;;;2.60;1.90;;;15.40;93.30;;;;;;5102198;28;20476;-71
2022/10/15 08:41:44;;;;;;;2.80;2.03;;;15.40;93.30;;;;;;5094903;28;20496;-71
2022/10/15 08:44:20;;;;;;;3.70;2.33;;;15.50;93.20;;;;;;5089877;28;20428;-71
2022/10/15 08:46:49;;;;;;;2.97;2.10;;;15.50;93.20;;;;;;5082005;28;20421;-73
2022/10/15 08:49:27;;;;;;;2.07;1.70;;;15.50;93.00;;;;;;5084328;28;20721;-70
2022/10/15 08:52:01;;;;;;;2.17;1.90;;;15.60;92.90;;;;;;5084731;28;20421;-72
2022/10/15 08:54:31;;;;;;;2.15;1.95;;;15.70;92.70;;;;;;5080297;28;20426;-72
2022/10/15 08:57:11;;;;;;;2.70;2.40;;;15.80;92.30;;;;;;5075989;28;20418;-71
2022/10/15 08:59:45;;;;;;;2.85;2.50;;;15.80;92.20;;;;;;5078410;28;20424;-71
2022/10/15 09:02:17;;;;;;;2.05;1.85;;;15.90;91.70;;;;;;5083274;28;20430;-71
2022/10/15 09:04:55;;;;;;;1.88;1.77;;;15.90;91.90;;;;;;5084633;28;20429;-71
2022/10/15 09:07:29;;;;;;;2.20;1.70;;;16.00;92.00;;;;;;5079247;28;20435;-71
2022/10/15 09:10:15;;;;;;;2.53;1.90;;;16.20;91.80;;;;;;5082932;28;20516;-71
2022/10/15 09:12:50;;;;;;;2.30;1.90;;;16.20;91.60;;;;;;5082831;28;20471;-71
2022/10/15 09:15:19;;;;;;;2.08;1.60;;;16.20;91.20;;;;;;5083313;28;20498;-71
2022/10/15 09:17:48;;;;;;;1.77;1.67;;;16.20;91.30;;;;;;5084199;28;20901;-71
2022/10/15 09:20:19;;;;;;;2.33;1.60;;;16.20;92.00;;;;;;5085769;28;20429;-70
2022/10/15 09:22:50;;;;;;;1.88;1.60;;;16.10;92.00;;;;;;5093282;28;20424;-71
2022/10/15 09:25:19;;;;;;;1.70;1.60;;;16.20;91.90;;;;;;5088405;28;20433;-73
2022/10/15 09:27:48;;;;;;;1.30;1.20;;;16.20;91.70;;;;;;5088396;28;20430;-71
2022/10/15 09:30:27;;;;;;;2.10;1.30;;;16.20;91.50;;;;;;5083982;28;20434;-71
2022/10/15 09:32:59;;;;;;;1.13;1.00;;;16.20;91.50;;;;;;5083127;28;20968;-71
2022/10/15 09:35:30;;;;;;;1.50;1.20;;;16.20;92.10;;;;;;5083475;28;20891;-71
2022/10/15 09:38:11;;;;;;;1.13;1.03;;;16.20;91.80;;;;;;5083412;28;20417;-71
2022/10/15 09:40:46;;;;;;;1.50;1.02;;;16.30;91.70;;;;;;5082801;28;20532;-72
2022/10/15 09:43:14;;;;;;;1.10;1.00;;;16.30;91.50;;;;;;5082708;28;20441;-71
2022/10/15 09:45:41;;;;;;;1.30;1.00;;;16.40;91.10;;;;;;5081650;28;20529;-73
2022/10/15 09:48:17;;;;;;;1.63;1.00;;;16.50;90.80;;;;;;5083405;28;20421;-72
2022/10/15 09:50:54;;;;;;;1.10;0.90;;;16.70;91.00;;;;;;5083076;28;20943;-71
2022/10/15 09:53:30;;;;;;;1.17;0.70;;;16.90;90.00;;;;;;5081736;28;21122;-71
2022/10/15 09:56:03;;;;;;;2.45;0.90;;;16.90;89.00;;;;;;5080122;28;20950;-73
2022/10/15 09:58:37;;;;;;;1.60;0.90;;;16.90;89.40;;;;;;5081865;28;21044;-72
2022/10/15 10:01:05;;;;;;;1.30;0.80;;;16.90;90.00;;;;;;5080742;28;20434;-72
2022/10/15 10:03:33;;;;;;;1.00;0.80;;;16.90;90.10;;;;;;5082802;28;20430;-73
2022/10/15 10:06:07;;;;;;;1.10;0.98;;;16.90;91.00;;;;;;5083023;28;20417;-73
2022/10/15 10:08:39;;;;;;;1.20;1.10;;;16.80;91.80;;;;;;5080944;28;20444;-72
2022/10/15 10:11:08;;;;;;;1.60;0.90;;;16.80;91.70;;;;;;5081599;28;20445;-72
2022/10/15 10:13:40;;;;;;;1.25;1.15;;;16.80;91.70;;;;;;5082504;28;20820;-72
2022/10/15 10:16:10;;;;;;;1.40;0.90;;;16.80;91.80;;;;;;5082775;28;20510;-72
2022/10/15 10:18:38;;;;;;;1.60;0.90;;;16.90;91.30;;;;;;5081531;28;20758;-73
2022/10/15 10:21:20;;;;;;;1.07;0.77;;;16.90;91.70;;;;;;5082919;28;20457;-72
2022/10/15 10:23:47;;;;;;;1.30;0.95;;;17.10;92.20;;;;;;5080229;28;20434;-73
2022/10/15 10:26:14;;;;;;;0.80;0.70;;;17.30;91.80;;;;;;5085453;28;20437;-72
2022/10/15 10:28:46;;;;;;;0.90;0.70;;;17.50;90.20;;;;;;5085096;28;20500;-72
2022/10/15 10:31:13;;;;;;;0.90;0.80;;;17.70;90.10;;;;;;5085815;28;20413;-72
2022/10/15 10:33:46;;;;;;;0.80;0.50;;;17.80;88.70;;;;;;5086354;28;20414;-73
2022/10/15 10:36:27;;;;;;;1.00;0.60;;;17.90;88.20;;;;;;5086298;28;20413;-72
2022/10/15 10:39:02;;;;;;;1.63;0.90;;;17.90;87.90;;;;;;5085245;28;20452;-72
2022/10/15 10:41:50;;;;;;;1.52;0.80;;;17.80;88.20;;;;;;5086097;28;20524;-72
2022/10/15 10:44:26;;;;;;;1.80;0.80;;;17.70;88.60;;;;;;5085801;28;20653;-72
2022/10/15 10:47:03;;;;;;;1.00;0.80;;;17.80;89.10;;;;;;5086981;28;20603;-72
2022/10/15 10:49:31;;;;;;;1.70;0.77;;;17.80;88.30;;;;;;5082568;28;20441;-72
2022/10/15 10:52:00;;;;;;;1.40;0.80;;;17.70;88.80;;;;;;5086888;28;20969;-72
2022/10/15 10:54:28;;;;;;;1.00;0.80;;;17.70;89.40;;;;;;5082738;28;20430;-73
2022/10/15 10:56:58;;;;;;;1.13;0.80;;;17.80;89.30;;;;;;5085534;28;20508;-73
2022/10/15 10:59:29;;;;;;;1.00;0.70;;;17.80;88.90;;;;;;5086147;28;20568;-72
2022/10/15 11:01:56;;;;;;;1.57;0.70;;;17.80;89.10;;;;;;5086028;28;20428;-72
2022/10/15 11:04:26;;;;;;;0.88;0.80;;;17.80;89.20;;;;;;5082842;28;20945;-72
2022/10/15 11:07:04;;;;;;;2.47;0.70;;;17.80;89.40;;;;;;5085715;28;20524;-72
2022/10/15 11:09:52;;;;;;;1.30;0.60;;;17.90;89.00;;;;;;5084868;28;20429;-72
2022/10/15 11:12:35;;;;;;;1.95;0.90;;;18.00;88.30;;;;;;5083519;28;20482;-72
2022/10/15 11:15:15;;;;;;;1.40;0.60;;;18.20;87.50;;;;;;5085725;28;20426;-72
2022/10/15 11:17:51;;;;;;;2.00;0.90;;;18.30;86.10;;;;;;5082479;28;20460;-72
2022/10/15 11:20:23;;;;;;;0.80;0.52;;;18.50;85.30;;;;;;5085086;28;20833;-72
2022/10/15 11:23:05;;;;;;;1.15;0.57;;;18.60;84.70;;;;;;5081950;28;20429;-72
2022/10/15 11:25:40;;;;;;;1.10;0.60;;;18.70;84.10;;;;;;5084164;28;20437;-72
2022/10/15 11:28:23;;;;;;;1.30;0.50;;;18.80;82.40;;;;;;5085194;28;20755;-73
2022/10/15 11:30:58;;;;;;;0.70;0.40;;;18.90;81.80;;;;;;5084340;28;20410;-73
2022/10/15 11:33:38;;;;;;;1.10;0.40;;;18.90;81.70;;;;;;5082569;28;20501;-72
2022/10/15 11:36:23;;;;;;;1.00;0.40;;;19.00;80.80;;;;;;5084122;28;20509;-72
2022/10/15 11:38:59;;;;;;;0.70;0.40;;;19.10;79.40;;;;;;5084865;28;20465;-72
2022/10/15 11:41:39;;;;;;;0.60;0.40;;;19.30;78.60;;;;;;5082060;28;20481;-72
2022/10/15 11:44:43;;;;;;;1.15;0.50;;;19.40;78.30;;;;;;5083519;28;20909;-72
2022/10/15 11:47:21;;;;;;;0.70;0.40;;;19.30;79.00;;;;;;5078218;28;20433;-73
2022/10/15 11:50:03;;;;;;;1.10;0.50;;;19.30;78.90;;;;;;5081893;28;20517;-73
2022/10/15 11:52:56;;;;;;;1.60;0.40;;;19.40;78.40;;;;;;5083417;28;20505;-72
2022/10/15 11:55:32;;;;;;;1.08;0.50;;;19.40;78.30;;;;;;5084762;28;20516;-72
2022/10/15 11:58:02;;;;;;;0.80;0.40;;;19.40;79.20;;;;;;5084719;28;20421;-72
2022/10/15 12:00:34;;;;;;;0.60;0.40;;;19.40;78.50;;;;;;5085841;28;20426;-70
2022/10/15 12:03:14;;;;;;;1.10;0.30;;;19.40;78.70;;;;;;5083147;28;20425;-72
2022/10/15 12:05:46;;;;;;;0.80;0.80;;;19.40;78.10;;;;;;5084418;28;20497;-70
2022/10/15 12:08:13;;;;;;;0.70;0.40;;;19.40;77.90;;;;;;5081688;28;20528;-70
2022/10/15 12:10:56;;;;;;;0.60;0.40;;;19.40;78.50;;;;;;5081996;28;20493;-71
2022/10/15 12:13:28;;;;;;;1.20;0.40;;;19.40;78.30;;;;;;5083884;28;20425;-70
2022/10/15 12:16:08;;;;;;;1.08;0.50;;;19.40;78.90;;;;;;5084137;28;20425;-70
2022/10/15 12:18:39;;;;;;;0.60;0.35;;;19.50;78.20;;;;;;5091625;22;20437;-69
2022/10/15 12:21:31;;;;;;;1.20;0.38;;;19.50;77.90;;;;;;5086980;28;20418;-69
2022/10/15 12:23:58;;;;;;;0.70;0.38;;;19.60;77.80;;;;;;5083811;28;20425;-70
2022/10/15 12:26:32;;;;;;;0.88;0.38;;;19.60;77.70;;;;;;5085226;28;20442;-71
2022/10/15 12:29:00;;;;;;;0.95;0.30;;;19.60;77.50;;;;;;5071512;28;20416;-72
2022/10/15 12:31:43;;;;;;;0.70;0.40;;;19.70;77.30;;;;;;5063861;28;20915;-68
2022/10/15 12:34:29;;;;;;;1.25;0.40;;;19.70;76.70;;;;;;5063155;28;20501;-69
2022/10/15 12:37:04;;;;;;;1.10;0.30;;;19.80;76.40;;;;;;5068652;28;20422;-69
2022/10/15 12:39:31;;;;;;;1.40;0.40;;;19.80;76.70;;;;;;5054494;28;20425;-69
2022/10/15 12:42:01;;;;;;;0.90;0.38;;;19.80;76.20;;;;;;5067438;28;20427;-71
2022/10/15 12:44:30;;;;;;;1.70;0.90;;;19.90;76.20;;;;;;5062070;28;20511;-78
2022/10/15 12:46:57;;;;;;;0.90;0.40;;;19.80;76.70;;;;;;5062881;28;20899;-76
2022/10/15 12:49:47;;;;;;;1.00;0.50;;;19.80;76.80;;;;;;5058462;28;20438;-76
2022/10/15 12:52:52;;;;;;;0.90;0.40;;;19.90;76.30;;;;;;5065239;28;20978;-77
2022/10/15 12:55:28;;;;;;;0.90;0.50;;;20.00;76.20;;;;;;5072847;28;20426;-80
2022/10/15 12:58:00;;;;;;;0.80;0.30;;;20.00;75.70;;;;;;5069265;28;20505;-73
2022/10/15 13:00:33;;;;;;;0.60;0.40;;;20.20;74.80;;;;;;5074118;28;20423;-68
2022/10/15 13:03:10;;;;;;;1.08;0.50;;;20.20;74.70;;;;;;5068349;28;20424;-72
2022/10/15 13:05:37;;;;;;;0.60;0.40;;;20.20;74.50;;;;;;5055314;28;20436;-71